METAR Data
IDs: Format: Raw Decoded Include TAF

Data at: 0356 UTC 24 Jun 2021

METAR for:KUNI (Albany/Ohio Univ Arp, OH, US)
Text:KUNI 240335Z AUTO 00000KT 10SM CLR 14/13 A3021 RMK AO2 T01370127
Temperature: 13.7°C ( 57°F)
Dewpoint: 12.7°C ( 55°F) [RH = 94%]
Pressure (altimeter):30.21 inches Hg (1023.1 mb)
Winds:calm
Visibility:10 or more sm (16+ km)
Ceiling:at least 12,000 feet AGL
Clouds:sky clear below 12,000 feet AGL
QC Flag:automated observation with no human augmentation